Aeroporto :
LOGIN :

Iscrizione | Disclaimer

   EN    FR    IT 

 










Sommario :    VFR   VFR Marginale   IFR   IFR Intensivo   IFR Molto Intensivo
Visibilità : 
Base nubi : 
>= 8 km
>= 3000ft
5 / 8 km
1000 / 3000 ft
1500m / 5 km
500 / 1000 ft
800 / 1500m
200 / 500 ft
< 800m
< 200 ft
Simboli :   Temporali  Nebbia  Neve Forte  Precipitazioni Forti  Vento > 20 kt
SIGMETs :   Varie  Temporali  Ghiacco  Turbolenza  Onda orograficha  Ceneri Vulcaniche







- Altitudine del aeroporto : 0 ft


ETEB - Ansbach Army Heliport

ULTIMO METAR :
  • 231256Z AUTO 12003KT 9999 BKN055 17/06 A3009 RMK AO2 SLP202 T01670056 $

METARs OBSOLETI :
  • 231156Z AUTO 17003KT 9999 FEW055 FEW160 SCT200 17/06 A3011 RMK AO2 SLP209 T01730062 10173 20094 57010 $
  • 231056Z AUTO 34005KT 9999 SCT050 SCT160 16/05 A3012 RMK AO2 SLP212 T01640054 $

TAF TAF ETEB
Valido dal 23 a 05 ore il 24 a 11 ore UTC


230504Z 2305/2411 VRB06KT 8000 BR FEW040 QNH3009INS
BECMG 2306/2307 VRB06KT 9999 NSW FEW040 QNH3009INS
BECMG 2313/2314 VRB06KT 9999 SCT040 QNH3006INS TX16/2315Z TN03/2305Z
Nessun NOTAM noto per questo aeroporto.



MetMap, La meteo Aeronautica in un colpo d'occhio ! - Copyright ORBIFLY Dicembre 2007 - Disclaimer

ORBIFLY MET'MAP TEAM :

Programmazione e sviluppo : Alexandra Zaïnal
Concezione e sviluppo : Baudouin d'Aumeries
Co-Programmazione e sviluppo : Marc-Olivier Méhu
Supporto tecnico e logistico : Manuel Goepfert
Aiuto per la traduzione : Arnaldo La Scala

Contatto : metmap@orbifly.com




FONTI E CREDITI :

   NOAA